sensor_id;sensor_type;location;lat;lon;timestamp;P1;durP1;ratioP1;P2;durP2;ratioP2
58250;SDS011;51449;51.676;5.812;2023-11-22T00:01:26;10.77;;;5.23;;
58250;SDS011;51449;51.676;5.812;2023-11-22T00:03:48;12.17;;;6.03;;
58250;SDS011;51449;51.676;5.812;2023-11-22T00:06:11;10.27;;;6.07;;
58250;SDS011;51449;51.676;5.812;2023-11-22T00:08:33;12.97;;;6.27;;
58250;SDS011;51449;51.676;5.812;2023-11-22T00:10:56;12.93;;;6.10;;
58250;SDS011;51449;51.676;5.812;2023-11-22T00:13:18;9.70;;;5.10;;
58250;SDS011;51449;51.676;5.812;2023-11-22T00:15:40;12.40;;;6.17;;
58250;SDS011;51449;51.676;5.812;2023-11-22T00:18:01;12.97;;;7.07;;
58250;SDS011;51449;51.676;5.812;2023-11-22T00:20:25;11.25;;;5.35;;
58250;SDS011;51449;51.676;5.812;2023-11-22T00:22:46;9.43;;;4.83;;
58250;SDS011;51449;51.676;5.812;2023-11-22T00:25:08;11.90;;;6.03;;
58250;SDS011;51449;51.676;5.812;2023-11-22T00:27:35;11.33;;;5.17;;
58250;SDS011;51449;51.676;5.812;2023-11-22T00:29:59;10.60;;;4.95;;
58250;SDS011;51449;51.676;5.812;2023-11-22T00:32:21;8.60;;;4.30;;
58250;SDS011;51449;51.676;5.812;2023-11-22T00:34:42;9.73;;;5.90;;
58250;SDS011;51449;51.676;5.812;2023-11-22T00:37:04;13.50;;;6.00;;
58250;SDS011;51449;51.676;5.812;2023-11-22T00:39:27;9.63;;;5.30;;
58250;SDS011;51449;51.676;5.812;2023-11-22T00:41:49;11.23;;;6.60;;
58250;SDS011;51449;51.676;5.812;2023-11-22T00:44:11;14.27;;;6.10;;
58250;SDS011;51449;51.676;5.812;2023-11-22T00:46:34;10.83;;;6.33;;
58250;SDS011;51449;51.676;5.812;2023-11-22T00:48:56;10.90;;;5.03;;
58250;SDS011;51449;51.676;5.812;2023-11-22T00:51:18;12.20;;;5.43;;
58250;SDS011;51449;51.676;5.812;2023-11-22T00:53:41;12.43;;;5.23;;
58250;SDS011;51449;51.676;5.812;2023-11-22T00:56:04;9.87;;;6.47;;
58250;SDS011;51449;51.676;5.812;2023-11-22T00:58:28;14.20;;;5.73;;
58250;SDS011;51449;51.676;5.812;2023-11-22T01:00:49;12.00;;;5.83;;
58250;SDS011;51449;51.676;5.812;2023-11-22T01:03:11;12.17;;;6.13;;
58250;SDS011;51449;51.676;5.812;2023-11-22T01:05:34;13.93;;;5.27;;
58250;SDS011;51449;51.676;5.812;2023-11-22T01:07:57;10.43;;;5.37;;
58250;SDS011;51449;51.676;5.812;2023-11-22T01:10:22;15.30;;;6.57;;
58250;SDS011;51449;51.676;5.812;2023-11-22T01:12:44;11.30;;;5.47;;
58250;SDS011;51449;51.676;5.812;2023-11-22T01:15:07;11.73;;;5.53;;
58250;SDS011;51449;51.676;5.812;2023-11-22T01:17:32;12.27;;;5.87;;
58250;SDS011;51449;51.676;5.812;2023-11-22T01:19:55;8.60;;;4.60;;
58250;SDS011;51449;51.676;5.812;2023-11-22T01:22:17;7.83;;;4.77;;
58250;SDS011;51449;51.676;5.812;2023-11-22T01:24:39;16.70;;;5.97;;
58250;SDS011;51449;51.676;5.812;2023-11-22T01:27:01;13.10;;;6.37;;
58250;SDS011;51449;51.676;5.812;2023-11-22T01:29:23;10.77;;;5.47;;
58250;SDS011;51449;51.676;5.812;2023-11-22T01:31:45;11.77;;;5.97;;
58250;SDS011;51449;51.676;5.812;2023-11-22T01:34:07;15.57;;;7.17;;
58250;SDS011;51449;51.676;5.812;2023-11-22T01:36:31;11.95;;;5.50;;
58250;SDS011;51449;51.676;5.812;2023-11-22T01:38:53;11.03;;;4.53;;
58250;SDS011;51449;51.676;5.812;2023-11-22T01:41:17;11.48;;;5.80;;
58250;SDS011;51449;51.676;5.812;2023-11-22T01:43:39;13.87;;;6.93;;
58250;SDS011;51449;51.676;5.812;2023-11-22T01:46:02;12.40;;;6.13;;
58250;SDS011;51449;51.676;5.812;2023-11-22T01:48:25;11.03;;;4.97;;
58250;SDS011;51449;51.676;5.812;2023-11-22T01:50:47;12.63;;;5.77;;
58250;SDS011;51449;51.676;5.812;2023-11-22T01:53:11;13.00;;;5.90;;
58250;SDS011;51449;51.676;5.812;2023-11-22T01:55:38;13.17;;;5.53;;
58250;SDS011;51449;51.676;5.812;2023-11-22T02:00:25;10.23;;;5.20;;
58250;SDS011;51449;51.676;5.812;2023-11-22T02:02:56;9.60;;;5.37;;
58250;SDS011;51449;51.676;5.812;2023-11-22T02:05:19;10.03;;;5.13;;
58250;SDS011;51449;51.676;5.812;2023-11-22T02:07:40;14.13;;;5.80;;
58250;SDS011;51449;51.676;5.812;2023-11-22T02:10:06;13.15;;;6.45;;
58250;SDS011;51449;51.676;5.812;2023-11-22T02:12:29;12.13;;;5.97;;
58250;SDS011;51449;51.676;5.812;2023-11-22T02:14:51;9.17;;;4.93;;
58250;SDS011;51449;51.676;5.812;2023-11-22T02:17:12;8.90;;;5.27;;
58250;SDS011;51449;51.676;5.812;2023-11-22T02:19:34;13.50;;;6.13;;
58250;SDS011;51449;51.676;5.812;2023-11-22T02:21:58;11.87;;;5.63;;
58250;SDS011;51449;51.676;5.812;2023-11-22T02:24:20;11.83;;;5.73;;
58250;SDS011;51449;51.676;5.812;2023-11-22T02:26:43;9.90;;;5.20;;
58250;SDS011;51449;51.676;5.812;2023-11-22T02:29:08;11.70;;;5.43;;
58250;SDS011;51449;51.676;5.812;2023-11-22T02:31:31;13.53;;;5.30;;
58250;SDS011;51449;51.676;5.812;2023-11-22T02:33:55;11.52;;;5.75;;
58250;SDS011;51449;51.676;5.812;2023-11-22T02:36:17;12.53;;;5.63;;
58250;SDS011;51449;51.676;5.812;2023-11-22T02:38:39;10.57;;;5.57;;
58250;SDS011;51449;51.676;5.812;2023-11-22T02:41:02;9.33;;;5.47;;
58250;SDS011;51449;51.676;5.812;2023-11-22T02:43:25;8.60;;;3.97;;
58250;SDS011;51449;51.676;5.812;2023-11-22T02:45:47;12.20;;;5.33;;
58250;SDS011;51449;51.676;5.812;2023-11-22T02:48:09;10.90;;;6.03;;
58250;SDS011;51449;51.676;5.812;2023-11-22T02:50:31;12.10;;;5.47;;
58250;SDS011;51449;51.676;5.812;2023-11-22T02:52:58;9.10;;;5.20;;
58250;SDS011;51449;51.676;5.812;2023-11-22T02:55:20;9.67;;;5.33;;
58250;SDS011;51449;51.676;5.812;2023-11-22T02:57:42;8.30;;;4.10;;
58250;SDS011;51449;51.676;5.812;2023-11-22T03:00:04;11.17;;;5.70;;
58250;SDS011;51449;51.676;5.812;2023-11-22T03:02:29;9.93;;;4.70;;
58250;SDS011;51449;51.676;5.812;2023-11-22T03:04:51;10.27;;;5.33;;
58250;SDS011;51449;51.676;5.812;2023-11-22T03:07:13;10.93;;;5.07;;
58250;SDS011;51449;51.676;5.812;2023-11-22T03:09:34;12.20;;;5.43;;
58250;SDS011;51449;51.676;5.812;2023-11-22T03:11:58;10.00;;;5.07;;
58250;SDS011;51449;51.676;5.812;2023-11-22T03:14:19;11.30;;;5.57;;
58250;SDS011;51449;51.676;5.812;2023-11-22T03:16:41;10.53;;;5.63;;
58250;SDS011;51449;51.676;5.812;2023-11-22T03:19:04;9.90;;;5.47;;
58250;SDS011;51449;51.676;5.812;2023-11-22T03:21:26;13.43;;;5.87;;
58250;SDS011;51449;51.676;5.812;2023-11-22T03:23:49;9.73;;;4.93;;
58250;SDS011;51449;51.676;5.812;2023-11-22T03:26:11;8.27;;;4.10;;
58250;SDS011;51449;51.676;5.812;2023-11-22T03:28:34;9.80;;;4.80;;
58250;SDS011;51449;51.676;5.812;2023-11-22T03:30:56;10.67;;;5.20;;
58250;SDS011;51449;51.676;5.812;2023-11-22T03:33:18;9.73;;;5.07;;
58250;SDS011;51449;51.676;5.812;2023-11-22T03:35:40;9.67;;;5.17;;
58250;SDS011;51449;51.676;5.812;2023-11-22T03:38:02;10.77;;;5.00;;
58250;SDS011;51449;51.676;5.812;2023-11-22T03:40:24;12.70;;;5.80;;
58250;SDS011;51449;51.676;5.812;2023-11-22T03:42:46;8.43;;;4.63;;
58250;SDS011;51449;51.676;5.812;2023-11-22T03:45:08;10.97;;;4.73;;
58250;SDS011;51449;51.676;5.812;2023-11-22T03:47:31;8.50;;;5.13;;
58250;SDS011;51449;51.676;5.812;2023-11-22T03:49:54;7.15;;;4.53;;
58250;SDS011;51449;51.676;5.812;2023-11-22T03:52:16;10.97;;;4.60;;
58250;SDS011;51449;51.676;5.812;2023-11-22T03:54:38;8.67;;;5.00;;
58250;SDS011;51449;51.676;5.812;2023-11-22T03:57:00;10.80;;;4.80;;
58250;SDS011;51449;51.676;5.812;2023-11-22T03:59:23;14.60;;;5.43;;
58250;SDS011;51449;51.676;5.812;2023-11-22T04:01:45;11.47;;;5.07;;
58250;SDS011;51449;51.676;5.812;2023-11-22T04:04:07;9.23;;;4.90;;
58250;SDS011;51449;51.676;5.812;2023-11-22T04:06:31;7.43;;;4.75;;
58250;SDS011;51449;51.676;5.812;2023-11-22T04:08:54;10.07;;;5.18;;
58250;SDS011;51449;51.676;5.812;2023-11-22T04:11:17;9.57;;;5.33;;
58250;SDS011;51449;51.676;5.812;2023-11-22T04:13:42;13.55;;;5.93;;
58250;SDS011;51449;51.676;5.812;2023-11-22T04:16:04;11.60;;;5.63;;
58250;SDS011;51449;51.676;5.812;2023-11-22T04:18:30;10.03;;;4.93;;
58250;SDS011;51449;51.676;5.812;2023-11-22T04:20:52;10.70;;;5.93;;
58250;SDS011;51449;51.676;5.812;2023-11-22T04:23:14;11.70;;;5.07;;
58250;SDS011;51449;51.676;5.812;2023-11-22T04:25:36;9.47;;;5.50;;
58250;SDS011;51449;51.676;5.812;2023-11-22T04:27:58;9.80;;;4.43;;
58250;SDS011;51449;51.676;5.812;2023-11-22T04:30:21;10.50;;;5.83;;
58250;SDS011;51449;51.676;5.812;2023-11-22T04:32:43;14.07;;;5.03;;
58250;SDS011;51449;51.676;5.812;2023-11-22T04:35:06;10.27;;;4.73;;
58250;SDS011;51449;51.676;5.812;2023-11-22T04:37:28;10.43;;;5.20;;
58250;SDS011;51449;51.676;5.812;2023-11-22T04:39:53;11.80;;;5.70;;
58250;SDS011;51449;51.676;5.812;2023-11-22T04:42:14;10.20;;;4.87;;
58250;SDS011;51449;51.676;5.812;2023-11-22T04:44:36;10.23;;;5.03;;
58250;SDS011;51449;51.676;5.812;2023-11-22T04:46:59;11.63;;;5.23;;
58250;SDS011;51449;51.676;5.812;2023-11-22T04:49:21;10.83;;;5.23;;
58250;SDS011;51449;51.676;5.812;2023-11-22T04:51:42;10.07;;;4.97;;
58250;SDS011;51449;51.676;5.812;2023-11-22T04:54:07;17.40;;;8.60;;
58250;SDS011;51449;51.676;5.812;2023-11-22T04:56:28;18.97;;;7.83;;
58250;SDS011;51449;51.676;5.812;2023-11-22T04:58:51;14.00;;;8.23;;
58250;SDS011;51449;51.676;5.812;2023-11-22T05:01:12;11.30;;;6.43;;
58250;SDS011;51449;51.676;5.812;2023-11-22T05:03:38;12.23;;;7.90;;
58250;SDS011;51449;51.676;5.812;2023-11-22T05:06:00;15.73;;;8.43;;
58250;SDS011;51449;51.676;5.812;2023-11-22T05:08:22;15.63;;;7.83;;
58250;SDS011;51449;51.676;5.812;2023-11-22T05:10:44;11.70;;;6.37;;
58250;SDS011;51449;51.676;5.812;2023-11-22T05:13:06;11.60;;;5.20;;
58250;SDS011;51449;51.676;5.812;2023-11-22T05:15:28;14.10;;;5.80;;
58250;SDS011;51449;51.676;5.812;2023-11-22T05:17:50;10.30;;;5.57;;
58250;SDS011;51449;51.676;5.812;2023-11-22T05:20:13;10.93;;;5.70;;
58250;SDS011;51449;51.676;5.812;2023-11-22T05:22:36;10.10;;;4.57;;
58250;SDS011;51449;51.676;5.812;2023-11-22T05:24:59;13.17;;;5.73;;
58250;SDS011;51449;51.676;5.812;2023-11-22T05:27:20;8.37;;;5.00;;
58250;SDS011;51449;51.676;5.812;2023-11-22T05:29:43;9.37;;;4.90;;
58250;SDS011;51449;51.676;5.812;2023-11-22T05:32:15;8.17;;;4.60;;
58250;SDS011;51449;51.676;5.812;2023-11-22T05:34:40;11.20;;;5.47;;
58250;SDS011;51449;51.676;5.812;2023-11-22T05:37:02;7.87;;;4.87;;
58250;SDS011;51449;51.676;5.812;2023-11-22T05:39:27;11.90;;;6.23;;
58250;SDS011;51449;51.676;5.812;2023-11-22T05:41:49;11.17;;;5.47;;
58250;SDS011;51449;51.676;5.812;2023-11-22T05:44:12;9.75;;;5.03;;
58250;SDS011;51449;51.676;5.812;2023-11-22T05:46:34;8.27;;;4.50;;
58250;SDS011;51449;51.676;5.812;2023-11-22T05:48:56;10.83;;;4.73;;
58250;SDS011;51449;51.676;5.812;2023-11-22T05:51:18;8.70;;;4.00;;
58250;SDS011;51449;51.676;5.812;2023-11-22T05:53:40;6.93;;;4.50;;
58250;SDS011;51449;51.676;5.812;2023-11-22T05:56:03;6.97;;;4.60;;
58250;SDS011;51449;51.676;5.812;2023-11-22T06:01:15;10.93;;;6.57;;
58250;SDS011;51449;51.676;5.812;2023-11-22T06:03:37;10.60;;;5.63;;
58250;SDS011;51449;51.676;5.812;2023-11-22T06:06:00;13.47;;;5.47;;
58250;SDS011;51449;51.676;5.812;2023-11-22T06:08:22;12.63;;;5.93;;
58250;SDS011;51449;51.676;5.812;2023-11-22T06:10:44;11.33;;;4.97;;
58250;SDS011;51449;51.676;5.812;2023-11-22T06:13:07;10.13;;;4.90;;
58250;SDS011;51449;51.676;5.812;2023-11-22T06:15:30;8.07;;;4.47;;
58250;SDS011;51449;51.676;5.812;2023-11-22T06:17:53;10.57;;;5.63;;
58250;SDS011;51449;51.676;5.812;2023-11-22T06:20:15;10.60;;;5.20;;
58250;SDS011;51449;51.676;5.812;2023-11-22T06:22:37;13.67;;;5.30;;
58250;SDS011;51449;51.676;5.812;2023-11-22T06:25:02;12.43;;;5.27;;
58250;SDS011;51449;51.676;5.812;2023-11-22T06:27:26;9.83;;;4.97;;
58250;SDS011;51449;51.676;5.812;2023-11-22T06:29:47;11.07;;;4.27;;
58250;SDS011;51449;51.676;5.812;2023-11-22T06:32:09;18.90;;;5.23;;
58250;SDS011;51449;51.676;5.812;2023-11-22T06:34:31;8.93;;;5.23;;
58250;SDS011;51449;51.676;5.812;2023-11-22T06:36:53;13.17;;;5.77;;
58250;SDS011;51449;51.676;5.812;2023-11-22T06:39:15;19.60;;;6.83;;
58250;SDS011;51449;51.676;5.812;2023-11-22T06:41:42;12.18;;;6.35;;
58250;SDS011;51449;51.676;5.812;2023-11-22T06:44:04;13.67;;;5.70;;
58250;SDS011;51449;51.676;5.812;2023-11-22T06:46:26;21.47;;;6.90;;
58250;SDS011;51449;51.676;5.812;2023-11-22T06:48:48;16.23;;;5.87;;
58250;SDS011;51449;51.676;5.812;2023-11-22T06:51:11;20.63;;;6.63;;
58250;SDS011;51449;51.676;5.812;2023-11-22T06:53:34;15.57;;;6.43;;
58250;SDS011;51449;51.676;5.812;2023-11-22T06:55:56;16.57;;;6.90;;
58250;SDS011;51449;51.676;5.812;2023-11-22T06:58:17;28.37;;;7.20;;
58250;SDS011;51449;51.676;5.812;2023-11-22T07:00:40;40.67;;;7.07;;
58250;SDS011;51449;51.676;5.812;2023-11-22T07:03:02;21.10;;;7.03;;
58250;SDS011;51449;51.676;5.812;2023-11-22T07:05:24;19.40;;;7.37;;
58250;SDS011;51449;51.676;5.812;2023-11-22T07:07:47;25.27;;;6.90;;
58250;SDS011;51449;51.676;5.812;2023-11-22T07:10:11;30.17;;;7.33;;
58250;SDS011;51449;51.676;5.812;2023-11-22T07:12:35;19.60;;;6.23;;
58250;SDS011;51449;51.676;5.812;2023-11-22T07:14:57;31.37;;;7.33;;
58250;SDS011;51449;51.676;5.812;2023-11-22T07:17:20;33.90;;;7.60;;
58250;SDS011;51449;51.676;5.812;2023-11-22T07:19:44;18.43;;;6.17;;
58250;SDS011;51449;51.676;5.812;2023-11-22T07:22:09;26.97;;;7.03;;
58250;SDS011;51449;51.676;5.812;2023-11-22T07:24:38;26.33;;;7.17;;
58250;SDS011;51449;51.676;5.812;2023-11-22T07:27:00;17.33;;;7.30;;
58250;SDS011;51449;51.676;5.812;2023-11-22T07:29:22;19.87;;;6.37;;
58250;SDS011;51449;51.676;5.812;2023-11-22T07:31:48;13.80;;;5.90;;
58250;SDS011;51449;51.676;5.812;2023-11-22T07:34:09;25.03;;;7.30;;
58250;SDS011;51449;51.676;5.812;2023-11-22T07:38:56;19.70;;;5.53;;
58250;SDS011;51449;51.676;5.812;2023-11-22T07:41:18;24.23;;;5.30;;
58250;SDS011;51449;51.676;5.812;2023-11-22T07:43:40;13.03;;;6.73;;
58250;SDS011;51449;51.676;5.812;2023-11-22T07:46:08;20.90;;;5.60;;
58250;SDS011;51449;51.676;5.812;2023-11-22T07:48:35;14.97;;;6.70;;
58250;SDS011;51449;51.676;5.812;2023-11-22T07:50:58;13.27;;;5.90;;
58250;SDS011;51449;51.676;5.812;2023-11-22T07:53:20;25.57;;;6.57;;
58250;SDS011;51449;51.676;5.812;2023-11-22T07:55:42;15.03;;;6.60;;
58250;SDS011;51449;51.676;5.812;2023-11-22T07:58:04;18.13;;;5.90;;
58250;SDS011;51449;51.676;5.812;2023-11-22T08:00:29;13.57;;;6.00;;
58250;SDS011;51449;51.676;5.812;2023-11-22T08:02:51;14.97;;;6.37;;
58250;SDS011;51449;51.676;5.812;2023-11-22T08:05:16;19.63;;;7.53;;
58250;SDS011;51449;51.676;5.812;2023-11-22T08:07:38;37.97;;;7.70;;
58250;SDS011;51449;51.676;5.812;2023-11-22T08:10:01;19.20;;;6.43;;
58250;SDS011;51449;51.676;5.812;2023-11-22T08:12:30;16.20;;;5.60;;
58250;SDS011;51449;51.676;5.812;2023-11-22T08:14:53;17.60;;;6.93;;
58250;SDS011;51449;51.676;5.812;2023-11-22T08:17:17;21.15;;;7.40;;
58250;SDS011;51449;51.676;5.812;2023-11-22T08:19:40;14.87;;;6.23;;
58250;SDS011;51449;51.676;5.812;2023-11-22T08:22:02;18.47;;;6.53;;
58250;SDS011;51449;51.676;5.812;2023-11-22T08:24:25;16.83;;;6.30;;
58250;SDS011;51449;51.676;5.812;2023-11-22T08:26:47;19.70;;;6.77;;
58250;SDS011;51449;51.676;5.812;2023-11-22T08:29:09;16.43;;;7.00;;
58250;SDS011;51449;51.676;5.812;2023-11-22T08:31:32;19.73;;;7.10;;
58250;SDS011;51449;51.676;5.812;2023-11-22T08:33:57;13.60;;;6.37;;
58250;SDS011;51449;51.676;5.812;2023-11-22T08:36:19;19.53;;;6.97;;
58250;SDS011;51449;51.676;5.812;2023-11-22T08:38:41;25.33;;;7.50;;
58250;SDS011;51449;51.676;5.812;2023-11-22T08:41:04;20.90;;;7.37;;
58250;SDS011;51449;51.676;5.812;2023-11-22T08:43:27;29.70;;;7.60;;
58250;SDS011;51449;51.676;5.812;2023-11-22T08:45:49;15.33;;;8.00;;
58250;SDS011;51449;51.676;5.812;2023-11-22T08:48:18;15.90;;;7.17;;
58250;SDS011;51449;51.676;5.812;2023-11-22T08:50:41;17.70;;;7.07;;
58250;SDS011;51449;51.676;5.812;2023-11-22T08:53:03;23.40;;;8.17;;
58250;SDS011;51449;51.676;5.812;2023-11-22T08:55:26;17.57;;;8.27;;
58250;SDS011;51449;51.676;5.812;2023-11-22T08:57:48;14.43;;;7.20;;
58250;SDS011;51449;51.676;5.812;2023-11-22T09:02:36;23.67;;;7.37;;
58250;SDS011;51449;51.676;5.812;2023-11-22T09:04:59;22.07;;;7.90;;
58250;SDS011;51449;51.676;5.812;2023-11-22T09:07:21;15.93;;;7.80;;
58250;SDS011;51449;51.676;5.812;2023-11-22T09:09:45;20.98;;;8.68;;
58250;SDS011;51449;51.676;5.812;2023-11-22T09:12:07;27.80;;;10.77;;
58250;SDS011;51449;51.676;5.812;2023-11-22T09:14:34;22.73;;;9.13;;
58250;SDS011;51449;51.676;5.812;2023-11-22T09:16:55;23.27;;;10.80;;
58250;SDS011;51449;51.676;5.812;2023-11-22T09:19:17;23.20;;;10.53;;
58250;SDS011;51449;51.676;5.812;2023-11-22T09:21:39;25.20;;;11.10;;
58250;SDS011;51449;51.676;5.812;2023-11-22T09:24:01;21.73;;;9.63;;
58250;SDS011;51449;51.676;5.812;2023-11-22T09:26:23;23.13;;;9.07;;
58250;SDS011;51449;51.676;5.812;2023-11-22T09:28:44;21.47;;;9.07;;
58250;SDS011;51449;51.676;5.812;2023-11-22T09:31:07;21.97;;;9.50;;
58250;SDS011;51449;51.676;5.812;2023-11-22T09:33:29;28.57;;;11.47;;
58250;SDS011;51449;51.676;5.812;2023-11-22T09:35:51;23.93;;;9.27;;
58250;SDS011;51449;51.676;5.812;2023-11-22T09:38:13;33.67;;;11.30;;
58250;SDS011;51449;51.676;5.812;2023-11-22T09:40:40;30.60;;;11.15;;
58250;SDS011;51449;51.676;5.812;2023-11-22T09:43:04;28.43;;;9.17;;
58250;SDS011;51449;51.676;5.812;2023-11-22T09:45:27;28.43;;;9.93;;
58250;SDS011;51449;51.676;5.812;2023-11-22T09:47:54;27.03;;;10.57;;
58250;SDS011;51449;51.676;5.812;2023-11-22T09:50:17;27.13;;;10.73;;
58250;SDS011;51449;51.676;5.812;2023-11-22T09:52:51;26.52;;;10.68;;
58250;SDS011;51449;51.676;5.812;2023-11-22T09:55:15;29.70;;;11.32;;
58250;SDS011;51449;51.676;5.812;2023-11-22T09:57:37;30.37;;;11.00;;
58250;SDS011;51449;51.676;5.812;2023-11-22T10:00:01;30.10;;;10.80;;
58250;SDS011;51449;51.676;5.812;2023-11-22T10:02:29;22.20;;;9.90;;
58250;SDS011;51449;51.676;5.812;2023-11-22T10:04:52;28.03;;;10.77;;
58250;SDS011;51449;51.676;5.812;2023-11-22T10:07:16;19.85;;;9.50;;
58250;SDS011;51449;51.676;5.812;2023-11-22T10:09:39;25.27;;;10.87;;
58250;SDS011;51449;51.676;5.812;2023-11-22T10:12:03;27.08;;;9.88;;
58250;SDS011;51449;51.676;5.812;2023-11-22T10:14:27;24.15;;;10.20;;
58250;SDS011;51449;51.676;5.812;2023-11-22T10:16:58;27.00;;;10.20;;
58250;SDS011;51449;51.676;5.812;2023-11-22T10:19:21;24.47;;;8.80;;
58250;SDS011;51449;51.676;5.812;2023-11-22T10:21:43;25.80;;;10.57;;
58250;SDS011;51449;51.676;5.812;2023-11-22T10:24:05;20.63;;;8.87;;
58250;SDS011;51449;51.676;5.812;2023-11-22T10:26:31;24.33;;;10.00;;
58250;SDS011;51449;51.676;5.812;2023-11-22T10:28:53;25.50;;;10.97;;
58250;SDS011;51449;51.676;5.812;2023-11-22T10:31:17;23.67;;;9.80;;
58250;SDS011;51449;51.676;5.812;2023-11-22T10:33:40;27.93;;;10.80;;
58250;SDS011;51449;51.676;5.812;2023-11-22T10:36:04;26.60;;;9.93;;
58250;SDS011;51449;51.676;5.812;2023-11-22T10:38:29;25.03;;;11.13;;
58250;SDS011;51449;51.676;5.812;2023-11-22T10:40:54;29.47;;;10.97;;
58250;SDS011;51449;51.676;5.812;2023-11-22T10:43:16;28.85;;;11.73;;
58250;SDS011;51449;51.676;5.812;2023-11-22T10:45:41;30.43;;;11.43;;
58250;SDS011;51449;51.676;5.812;2023-11-22T10:48:10;31.57;;;12.00;;
58250;SDS011;51449;51.676;5.812;2023-11-22T10:50:37;29.33;;;12.20;;
58250;SDS011;51449;51.676;5.812;2023-11-22T10:53:00;29.53;;;11.57;;
58250;SDS011;51449;51.676;5.812;2023-11-22T10:55:28;27.87;;;12.77;;
58250;SDS011;51449;51.676;5.812;2023-11-22T10:58:00;31.70;;;13.73;;
58250;SDS011;51449;51.676;5.812;2023-11-22T11:00:25;32.70;;;11.87;;
58250;SDS011;51449;51.676;5.812;2023-11-22T11:02:53;30.20;;;11.83;;
58250;SDS011;51449;51.676;5.812;2023-11-22T11:05:25;25.90;;;11.55;;
58250;SDS011;51449;51.676;5.812;2023-11-22T11:07:54;31.23;;;11.50;;
58250;SDS011;51449;51.676;5.812;2023-11-22T11:10:42;34.30;;;13.83;;
58250;SDS011;51449;51.676;5.812;2023-11-22T11:13:06;30.23;;;13.37;;
58250;SDS011;51449;51.676;5.812;2023-11-22T11:15:29;30.47;;;12.27;;
58250;SDS011;51449;51.676;5.812;2023-11-22T11:17:51;32.20;;;12.57;;
58250;SDS011;51449;51.676;5.812;2023-11-22T11:20:15;34.60;;;12.52;;
58250;SDS011;51449;51.676;5.812;2023-11-22T11:22:40;38.67;;;12.63;;
58250;SDS011;51449;51.676;5.812;2023-11-22T11:25:04;35.50;;;13.53;;
58250;SDS011;51449;51.676;5.812;2023-11-22T11:27:27;33.13;;;14.17;;
58250;SDS011;51449;51.676;5.812;2023-11-22T11:29:49;33.23;;;15.07;;
58250;SDS011;51449;51.676;5.812;2023-11-22T11:32:11;37.80;;;14.90;;
58250;SDS011;51449;51.676;5.812;2023-11-22T11:34:53;38.00;;;16.07;;
58250;SDS011;51449;51.676;5.812;2023-11-22T11:37:15;41.10;;;14.47;;
58250;SDS011;51449;51.676;5.812;2023-11-22T11:39:40;31.07;;;14.80;;
58250;SDS011;51449;51.676;5.812;2023-11-22T11:42:09;40.70;;;16.63;;
58250;SDS011;51449;51.676;5.812;2023-11-22T11:44:50;39.67;;;17.80;;
58250;SDS011;51449;51.676;5.812;2023-11-22T11:47:34;34.57;;;16.90;;
58250;SDS011;51449;51.676;5.812;2023-11-22T11:49:56;40.47;;;16.27;;
58250;SDS011;51449;51.676;5.812;2023-11-22T11:52:18;43.00;;;16.40;;
58250;SDS011;51449;51.676;5.812;2023-11-22T11:54:40;35.93;;;15.83;;
58250;SDS011;51449;51.676;5.812;2023-11-22T11:57:02;39.97;;;15.73;;
58250;SDS011;51449;51.676;5.812;2023-11-22T11:59:25;32.30;;;14.83;;
58250;SDS011;51449;51.676;5.812;2023-11-22T12:01:52;41.03;;;14.83;;
58250;SDS011;51449;51.676;5.812;2023-11-22T12:04:16;30.00;;;13.10;;
58250;SDS011;51449;51.676;5.812;2023-11-22T12:06:41;36.53;;;15.67;;
58250;SDS011;51449;51.676;5.812;2023-11-22T12:09:03;36.37;;;14.07;;
58250;SDS011;51449;51.676;5.812;2023-11-22T12:11:25;29.00;;;11.03;;
58250;SDS011;51449;51.676;5.812;2023-11-22T12:13:47;38.13;;;14.77;;
58250;SDS011;51449;51.676;5.812;2023-11-22T12:16:15;42.45;;;15.38;;
58250;SDS011;51449;51.676;5.812;2023-11-22T12:18:41;34.47;;;15.23;;
58250;SDS011;51449;51.676;5.812;2023-11-22T12:21:07;33.53;;;14.00;;
58250;SDS011;51449;51.676;5.812;2023-11-22T12:23:30;41.20;;;15.30;;
58250;SDS011;51449;51.676;5.812;2023-11-22T12:25:53;39.33;;;14.97;;
58250;SDS011;51449;51.676;5.812;2023-11-22T12:28:19;38.23;;;14.90;;
58250;SDS011;51449;51.676;5.812;2023-11-22T12:30:51;40.90;;;15.50;;
58250;SDS011;51449;51.676;5.812;2023-11-22T12:33:13;42.87;;;16.33;;
58250;SDS011;51449;51.676;5.812;2023-11-22T12:35:39;35.87;;;15.83;;
58250;SDS011;51449;51.676;5.812;2023-11-22T12:38:04;31.27;;;14.23;;
58250;SDS011;51449;51.676;5.812;2023-11-22T12:40:29;30.00;;;12.87;;
58250;SDS011;51449;51.676;5.812;2023-11-22T12:42:54;31.20;;;13.03;;
58250;SDS011;51449;51.676;5.812;2023-11-22T12:45:20;33.83;;;14.17;;
58250;SDS011;51449;51.676;5.812;2023-11-22T12:47:45;31.40;;;14.03;;
58250;SDS011;51449;51.676;5.812;2023-11-22T12:50:13;32.25;;;13.65;;
58250;SDS011;51449;51.676;5.812;2023-11-22T12:53:09;30.23;;;12.20;;
58250;SDS011;51449;51.676;5.812;2023-11-22T12:55:44;35.45;;;12.18;;
58250;SDS011;51449;51.676;5.812;2023-11-22T12:58:10;29.07;;;12.30;;
58250;SDS011;51449;51.676;5.812;2023-11-22T13:00:33;31.80;;;13.33;;
58250;SDS011;51449;51.676;5.812;2023-11-22T13:02:55;30.23;;;12.37;;
58250;SDS011;51449;51.676;5.812;2023-11-22T13:05:25;30.47;;;12.43;;
58250;SDS011;51449;51.676;5.812;2023-11-22T13:07:48;29.37;;;11.47;;
58250;SDS011;51449;51.676;5.812;2023-11-22T13:10:11;35.13;;;13.80;;
58250;SDS011;51449;51.676;5.812;2023-11-22T13:12:33;27.93;;;11.27;;
58250;SDS011;51449;51.676;5.812;2023-11-22T13:14:54;34.77;;;14.57;;
58250;SDS011;51449;51.676;5.812;2023-11-22T13:17:17;33.20;;;12.50;;
58250;SDS011;51449;51.676;5.812;2023-11-22T13:19:39;28.77;;;13.23;;
58250;SDS011;51449;51.676;5.812;2023-11-22T13:22:01;31.10;;;12.03;;
58250;SDS011;51449;51.676;5.812;2023-11-22T13:24:23;32.30;;;14.77;;
58250;SDS011;51449;51.676;5.812;2023-11-22T13:26:45;35.10;;;12.00;;
58250;SDS011;51449;51.676;5.812;2023-11-22T13:29:07;30.40;;;12.73;;
58250;SDS011;51449;51.676;5.812;2023-11-22T13:31:29;33.90;;;14.10;;
58250;SDS011;51449;51.676;5.812;2023-11-22T13:33:51;31.50;;;12.60;;
58250;SDS011;51449;51.676;5.812;2023-11-22T13:36:13;32.73;;;13.00;;
58250;SDS011;51449;51.676;5.812;2023-11-22T13:38:36;27.60;;;11.73;;
58250;SDS011;51449;51.676;5.812;2023-11-22T13:43:23;30.80;;;11.57;;
58250;SDS011;51449;51.676;5.812;2023-11-22T13:45:45;29.67;;;12.47;;
58250;SDS011;51449;51.676;5.812;2023-11-22T13:48:07;32.33;;;12.67;;
58250;SDS011;51449;51.676;5.812;2023-11-22T13:50:33;37.07;;;13.30;;
58250;SDS011;51449;51.676;5.812;2023-11-22T13:52:56;34.27;;;13.83;;
58250;SDS011;51449;51.676;5.812;2023-11-22T13:55:20;33.45;;;13.95;;
58250;SDS011;51449;51.676;5.812;2023-11-22T13:57:45;42.30;;;14.60;;
58250;SDS011;51449;51.676;5.812;2023-11-22T14:00:07;28.60;;;10.10;;
58250;SDS011;51449;51.676;5.812;2023-11-22T14:02:34;36.90;;;12.37;;
58250;SDS011;51449;51.676;5.812;2023-11-22T14:04:56;36.70;;;12.70;;
58250;SDS011;51449;51.676;5.812;2023-11-22T14:07:20;35.90;;;12.88;;
58250;SDS011;51449;51.676;5.812;2023-11-22T14:09:43;33.73;;;12.83;;
58250;SDS011;51449;51.676;5.812;2023-11-22T14:12:11;28.70;;;11.57;;
58250;SDS011;51449;51.676;5.812;2023-11-22T14:14:34;39.03;;;13.10;;
58250;SDS011;51449;51.676;5.812;2023-11-22T14:17:01;32.43;;;12.83;;
58250;SDS011;51449;51.676;5.812;2023-11-22T14:19:24;33.73;;;12.63;;
58250;SDS011;51449;51.676;5.812;2023-11-22T14:21:48;40.33;;;12.95;;